VRA weather

Juan Gualberto Gomez International Airport
Varadero, Matanzas, Cuba

Public forecast

Using degrees Celsius for public forecast. Weather courtesy of forecast.io.

Current aviation weather report (METAR) for Juan Gualberto Gomez International Airport

Retrieved 2020/02/17 02:50 UTC (27 minutes ago):

MUVR 170250Z 09004KT 060V130 9000 FEW020 23/16 Q1018

Aviation forecast (TAF) for Juan Gualberto Gomez International Airport

Retrieved 2020-02-17 00:03 UTC (3 hours ago):

TAF MUVR 162300Z 1700/1724 06010KT 9000 SCT020 BECMG 1701/1703 VRB03KT BECMG 1715/1717 06010KT